Time;durP1;ratioP1;P1;durP2;ratioP2;P2;SDS_P1;SDS_P2;PMS_P1;PMS_P2;Temp;Humidity;BMP_temperature;BMP_pressure;BME280_temperature;BME280_humidity;BME280_pressure;Samples;Min_cycle;Max_cycle;Signal;HPM_P1;HPM_P2
2022/06/30 00:01:56;;;;;;;5.03;3.47;;;;;;;35.34;31.84;97912.50;5090201;28;20025;-78
2022/06/30 00:04:22;;;;;;;5.57;4.03;;;;;;;35.73;31.16;97910.50;5072777;28;20549;-78
2022/06/30 00:06:48;;;;;;;4.00;3.55;;;;;;;36.06;30.48;97916.25;5072529;28;20432;-78
2022/06/30 00:09:14;;;;;;;4.82;3.58;;;;;;;36.36;30.10;97921.44;5072783;28;20032;-78
2022/06/30 00:11:41;;;;;;;4.20;3.80;;;;;;;36.66;29.83;97916.72;5072814;28;20044;-78
2022/06/30 00:14:07;;;;;;;3.67;3.35;;;;;;;36.88;29.09;97915.84;5076381;28;20028;-78
2022/06/30 00:16:33;;;;;;;7.30;3.55;;;;;;;36.93;29.29;97918.72;5078662;28;20037;-78
2022/06/30 00:18:59;;;;;;;3.38;3.08;;;;;;;37.05;28.50;97917.38;5072896;28;20033;-78
2022/06/30 00:21:25;;;;;;;4.47;4.05;;;;;;;37.13;28.31;97926.94;5072577;28;20029;-79
2022/06/30 00:23:52;;;;;;;4.22;3.83;;;;;;;37.24;28.54;97926.13;5072605;28;20036;-79
2022/06/30 00:26:18;;;;;;;6.07;3.42;;;;;;;37.27;28.46;97925.81;5072834;28;20037;-79
2022/06/30 00:28:44;;;;;;;4.57;3.58;;;;;;;37.33;28.19;97932.31;5072659;28;20036;-79
2022/06/30 00:31:10;;;;;;;4.30;3.58;;;;;;;37.31;28.19;97926.34;5072597;28;20032;-78
2022/06/30 00:33:36;;;;;;;5.88;3.85;;;;;;;36.95;28.43;97921.81;5085629;28;20028;-79
2022/06/30 00:36:02;;;;;;;3.50;3.15;;;;;;;36.48;28.78;97928.72;5092357;28;20396;-79
2022/06/30 00:38:28;;;;;;;3.22;2.92;;;;;;;36.46;29.10;97923.50;5092774;28;20036;-79
2022/06/30 00:40:54;;;;;;;3.33;3.03;;;;;;;36.62;28.88;97919.81;5093149;28;20489;-79
2022/06/30 00:43:20;;;;;;;4.15;3.08;;;;;;;36.25;29.63;97922.22;5092825;28;20396;-78
2022/06/30 00:45:49;;;;;;;3.33;3.03;;;;;;;35.94;29.84;97925.34;5092577;28;20388;-79
2022/06/30 00:48:16;;;;;;;3.17;2.95;;;;;;;35.99;30.06;97925.34;5092608;28;20039;-79
2022/06/30 00:50:43;;;;;;;3.80;3.42;;;;;;;36.34;29.03;97921.19;5078005;28;20028;-79
2022/06/30 00:53:10;;;;;;;4.07;3.70;;;;;;;36.67;28.73;97912.53;5072521;28;20036;-79
2022/06/30 00:55:37;;;;;;;3.85;3.55;;;;;;;36.54;28.78;97906.59;5075530;28;20036;-78
2022/06/30 00:58:06;;;;;;;3.00;2.80;;;;;;;36.57;29.00;97914.13;5075777;28;20049;-78
2022/06/30 01:00:38;;;;;;;4.32;3.35;;;;;;;36.79;28.38;97913.28;5075730;28;20074;-78
2022/06/30 01:03:08;;;;;;;3.83;3.45;;;;;;;36.67;28.28;97912.53;5075604;28;20548;-79
2022/06/30 01:05:35;;;;;;;3.20;2.90;;;;;;;36.14;29.16;97915.72;5075735;28;20110;-79
2022/06/30 01:08:04;;;;;;;3.42;3.13;;;;;;;35.26;30.20;97911.47;5092361;28;20480;-79
2022/06/30 01:13:16;;;;;;;4.28;3.90;;;;;;;34.66;31.84;97907.03;5096092;28;20055;-78
2022/06/30 01:15:42;;;;;;;4.53;3.58;;;;;;;34.48;32.06;97907.44;5096331;28;20111;-79
2022/06/30 01:18:08;;;;;;;4.38;3.97;;;;;;;34.73;31.77;97901.63;5095592;28;20100;-79
2022/06/30 01:20:34;;;;;;;3.58;3.28;;;;;;;35.24;30.83;97902.63;5095768;28;20028;-79
2022/06/30 01:23:03;;;;;;;3.20;3.00;;;;;;;35.76;30.27;97898.03;5095057;28;20042;-78
2022/06/30 01:25:33;;;;;;;3.85;3.42;;;;;;;35.82;29.63;97898.84;5095311;28;20028;-78
2022/06/30 01:28:00;;;;;;;3.70;3.45;;;;;;;36.11;29.08;97897.53;5096103;28;20114;-79
2022/06/30 01:30:29;;;;;;;4.03;3.35;;;;;;;36.37;29.33;97900.88;5095575;28;20024;-79
2022/06/30 01:32:56;;;;;;;7.20;3.40;;;;;;;36.10;28.97;97898.84;5095399;28;20059;-79
2022/06/30 01:35:22;;;;;;;4.07;3.67;;;;;;;35.19;30.33;97897.69;5095441;28;20043;-78
2022/06/30 01:37:57;;;;;;;3.45;3.13;;;;;;;34.37;31.85;97896.75;5095416;28;20024;-79
2022/06/30 01:40:29;;;;;;;4.00;3.00;;;;;;;34.53;32.31;97901.00;5091820;28;20118;-78
2022/06/30 01:42:55;;;;;;;4.25;3.65;;;;;;;35.19;31.04;97895.63;5075568;28;20040;-78
2022/06/30 01:45:22;;;;;;;5.50;3.53;;;;;;;35.67;30.20;97901.16;5075477;28;20098;-79
2022/06/30 01:47:50;;;;;;;4.32;3.92;;;;;;;35.69;30.53;97895.69;5074826;28;20040;-78
2022/06/30 01:50:22;;;;;;;4.70;4.18;;;;;;;35.14;30.65;97892.72;5074995;28;20032;-78
2022/06/30 01:52:48;;;;;;;8.02;4.97;;;;;;;34.80;31.48;97896.75;5074995;28;20024;-79
2022/06/30 01:55:15;;;;;;;4.32;3.92;;;;;;;34.57;32.12;97901.53;5075009;28;20033;-79
2022/06/30 01:57:41;;;;;;;3.50;2.90;;;;;;;34.82;31.73;97905.56;5075599;28;20052;-78
2022/06/30 02:00:11;;;;;;;4.00;3.60;;;;;;;34.53;31.89;97901.78;5074802;28;20081;-78
2022/06/30 02:02:38;;;;;;;3.65;3.42;;;;;;;33.99;32.86;97900.84;5074771;28;20052;-78
2022/06/30 02:05:04;;;;;;;4.35;3.95;;;;;;;33.91;33.25;97901.84;5074547;28;20041;-79
2022/06/30 02:07:31;;;;;;;4.88;4.40;;;;;;;34.34;32.76;97891.28;5073686;28;20028;-78
2022/06/30 02:09:57;;;;;;;4.85;4.40;;;;;;;34.26;32.80;97893.81;5074519;28;20033;-79
2022/06/30 02:15:10;;;;;;;5.38;4.22;;;;;;;34.38;32.88;97894.69;5084551;28;20181;-79
2022/06/30 02:17:39;;;;;;;6.10;4.30;;;;;;;34.58;31.99;97886.78;5094651;28;20059;-78
2022/06/30 02:20:08;;;;;;;4.18;3.75;;;;;;;35.01;31.27;97890.31;5094668;28;20395;-78
2022/06/30 02:22:38;;;;;;;3.97;3.22;;;;;;;35.56;30.04;97898.31;5086235;28;20024;-79
2022/06/30 02:25:06;;;;;;;4.63;3.78;;;;;;;35.94;29.54;97886.09;5090380;28;20028;-79
2022/06/30 02:27:32;;;;;;;6.13;5.53;;;;;;;36.14;28.76;97890.00;5094433;28;20040;-78
2022/06/30 02:29:59;;;;;;;4.32;3.58;;;;;;;35.71;29.43;97890.25;5076154;28;20040;-78
2022/06/30 02:32:25;;;;;;;4.35;3.45;;;;;;;35.37;29.86;97888.63;5092138;28;20039;-78
2022/06/30 02:34:52;;;;;;;3.90;3.60;;;;;;;35.47;29.70;97886.31;5094225;28;20039;-79
2022/06/30 02:37:19;;;;;;;4.70;4.03;;;;;;;34.64;30.80;97895.34;5094318;28;20035;-79
2022/06/30 02:39:45;;;;;;;4.35;3.95;;;;;;;34.64;31.14;97892.50;5094207;28;20047;-79
2022/06/30 02:42:11;;;;;;;3.78;3.45;;;;;;;35.08;30.18;97895.56;5094099;28;20555;-79
2022/06/30 02:44:37;;;;;;;3.65;3.35;;;;;;;35.18;30.14;97888.34;5094036;28;20073;-79
2022/06/30 02:47:04;;;;;;;6.07;4.28;;;;;;;35.32;30.02;97895.09;5094432;28;20036;-78
2022/06/30 02:49:30;;;;;;;4.57;3.75;;;;;;;34.27;31.24;97891.75;5081244;28;20037;-79
2022/06/30 02:51:56;;;;;;;5.38;4.30;;;;;;;33.92;33.02;97897.69;5073719;28;20392;-78
2022/06/30 02:54:22;;;;;;;7.20;3.83;;;;;;;33.92;32.92;97898.47;5055805;28;20095;-78
2022/06/30 02:56:49;;;;;;;3.65;3.35;;;;;;;34.50;32.24;97896.28;5073834;28;20043;-78
2022/06/30 02:59:16;;;;;;;4.18;3.80;;;;;;;34.77;31.38;97892.06;5055307;28;20037;-78
2022/06/30 03:01:42;;;;;;;3.60;3.30;;;;;;;34.66;31.46;97893.56;5073578;28;20099;-78
2022/06/30 03:04:08;;;;;;;3.60;3.30;;;;;;;35.15;30.10;97894.31;5073537;28;20029;-79
2022/06/30 03:06:35;;;;;;;3.78;3.47;;;;;;;35.63;29.72;97897.00;5086509;28;20032;-78
2022/06/30 03:09:03;;;;;;;3.95;3.63;;;;;;;35.87;29.36;97892.31;5093941;28;20099;-78
2022/06/30 03:11:29;;;;;;;4.03;3.65;;;;;;;35.48;29.82;97887.84;5093516;28;20028;-79
2022/06/30 03:13:55;;;;;;;5.18;3.72;;;;;;;35.03;29.89;97892.72;5091631;28;20514;-79
2022/06/30 03:16:21;;;;;;;4.22;3.72;;;;;;;35.17;29.99;97895.31;5082289;28;20479;-79
2022/06/30 03:18:48;;;;;;;4.03;3.00;;;;;;;35.65;29.60;97898.03;5093494;28;20055;-79
2022/06/30 03:21:14;;;;;;;4.10;3.80;;;;;;;35.67;29.12;97900.38;5081093;28;20043;-78
2022/06/30 03:23:40;;;;;;;4.05;3.40;;;;;;;35.60;29.57;97893.09;5081925;28;20483;-78
2022/06/30 03:26:06;;;;;;;3.65;3.33;;;;;;;35.80;29.27;97897.81;5093360;28;20043;-79
2022/06/30 03:28:33;;;;;;;3.65;3.35;;;;;;;35.60;29.86;97889.47;5093243;28;20150;-79
2022/06/30 03:30:59;;;;;;;4.30;3.97;;;;;;;35.51;29.87;97881.94;5093759;28;20419;-78
2022/06/30 03:33:26;;;;;;;4.97;3.70;;;;;;;35.35;30.34;97885.50;5093597;28;20487;-79
2022/06/30 03:35:52;;;;;;;4.50;4.10;;;;;;;35.10;31.08;97898.69;5093318;28;20024;-79
2022/06/30 03:38:19;;;;;;;4.40;4.00;;;;;;;34.79;31.48;97898.81;5093358;28;20024;-78
2022/06/30 03:40:45;;;;;;;3.58;3.28;;;;;;;34.93;31.62;97892.13;5091395;28;20035;-78
2022/06/30 03:43:11;;;;;;;4.57;3.92;;;;;;;34.57;32.32;97893.78;5092988;28;20039;-78
2022/06/30 03:45:37;;;;;;;3.80;3.50;;;;;;;34.83;32.11;97902.19;5093213;28;20028;-78
2022/06/30 03:48:05;;;;;;;3.85;3.55;;;;;;;35.37;31.36;97902.91;5093329;28;20078;-78
2022/06/30 03:50:32;;;;;;;3.42;3.13;;;;;;;35.86;30.71;97905.06;5093979;28;20417;-78
2022/06/30 03:52:59;;;;;;;3.75;3.25;;;;;;;36.26;30.16;97905.84;5093320;28;20385;-78
2022/06/30 03:55:26;;;;;;;4.53;4.22;;;;;;;36.51;29.32;97902.69;5093224;28;20089;-78
2022/06/30 03:57:52;;;;;;;4.95;4.15;;;;;;;36.74;29.38;97900.53;5084433;28;20069;-78
2022/06/30 04:00:18;;;;;;;4.43;4.03;;;;;;;36.83;29.34;97908.81;5093284;28;20446;-78
2022/06/30 04:02:45;;;;;;;4.10;3.75;;;;;;;37.17;29.13;97904.56;5093160;28;20491;-78
2022/06/30 04:05:11;;;;;;;3.50;3.30;;;;;;;37.51;28.14;97907.25;5093178;28;20036;-78
2022/06/30 04:07:42;;;;;;;3.88;3.63;;;;;;;37.97;28.20;97907.94;5092998;28;20025;-78
2022/06/30 04:10:10;;;;;;;3.88;3.38;;;;;;;37.91;28.63;97915.03;5093098;28;20040;-78
2022/06/30 04:12:36;;;;;;;3.50;3.20;;;;;;;38.14;28.78;97909.91;5092748;28;20027;-78
2022/06/30 04:15:03;;;;;;;4.43;3.40;;;;;;;38.61;28.03;97909.19;5075453;28;20024;-78
2022/06/30 04:17:33;;;;;;;4.07;3.78;;;;;;;38.44;27.77;97916.41;5072664;28;20029;-78
2022/06/30 04:20:00;;;;;;;3.33;3.13;;;;;;;38.35;27.82;97914.66;5072997;28;20561;-78
2022/06/30 04:22:26;;;;;;;5.53;3.30;;;;;;;38.22;27.81;97911.66;5073074;28;20021;-78
2022/06/30 04:24:53;;;;;;;3.35;3.05;;;;;;;38.43;28.13;97921.38;5072639;28;20033;-78
2022/06/30 04:27:19;;;;;;;3.47;3.28;;;;;;;38.51;28.46;97922.31;5072682;28;20044;-78
2022/06/30 04:29:45;;;;;;;5.65;4.13;;;;;;;39.05;27.43;97919.38;5074398;28;20040;-78
2022/06/30 04:34:55;;;;;;;6.60;3.65;;;;;;;39.95;26.26;97916.81;5076385;28;20051;-78
2022/06/30 04:37:21;;;;;;;3.50;3.20;;;;;;;40.16;25.63;97917.78;5076383;28;20481;-78
2022/06/30 04:39:48;;;;;;;3.20;3.00;;;;;;;40.41;26.12;97918.38;5076305;28;20033;-78
2022/06/30 04:42:14;;;;;;;3.47;2.72;;;;;;;40.57;25.18;97918.09;5076061;28;20039;-78
2022/06/30 04:44:41;;;;;;;3.63;2.80;;;;;;;40.67;25.42;97919.22;5076325;28;20033;-78
2022/06/30 04:47:08;;;;;;;3.63;2.80;;;;;;;40.75;25.71;97918.56;5076612;28;20064;-78
2022/06/30 04:49:34;;;;;;;3.05;2.70;;;;;;;40.68;25.28;97917.88;5096528;28;20036;-78
2022/06/30 04:52:00;;;;;;;3.05;2.85;;;;;;;40.74;26.02;97926.41;5096706;28;20028;-78
2022/06/30 04:54:26;;;;;;;4.35;3.47;;;;;;;40.56;24.47;97930.19;5096537;28;20093;-78
2022/06/30 04:56:53;;;;;;;4.43;2.85;;;;;;;40.28;25.48;97924.13;5084770;28;20070;-78
2022/06/30 04:59:19;;;;;;;4.80;3.38;;;;;;;39.89;25.49;97931.28;5096170;28;20174;-78
2022/06/30 05:01:45;;;;;;;3.08;2.88;;;;;;;39.92;25.64;97921.56;5078174;28;20024;-78
2022/06/30 05:04:11;;;;;;;2.92;2.72;;;;;;;40.16;25.67;97934.25;5094127;28;20460;-78
2022/06/30 05:06:37;;;;;;;3.78;3.05;;;;;;;40.44;25.89;97932.47;5096252;28;20028;-78
2022/06/30 05:09:03;;;;;;;3.20;2.97;;;;;;;40.69;24.50;97935.94;5096087;28;20060;-79
2022/06/30 05:11:29;;;;;;;5.28;3.80;;;;;;;40.26;24.55;97944.03;5095651;28;20032;-79
2022/06/30 05:13:55;;;;;;;3.28;3.00;;;;;;;39.80;25.11;97942.41;5095744;28;20028;-78
2022/06/30 05:16:23;;;;;;;3.03;2.83;;;;;;;39.91;25.50;97942.25;5095871;28;20043;-78
2022/06/30 05:18:49;;;;;;;3.03;2.72;;;;;;;40.18;25.43;97935.28;5095819;28;20032;-78
2022/06/30 05:21:15;;;;;;;2.60;2.47;;;;;;;40.52;26.02;97938.34;5058649;28;20131;-78
2022/06/30 05:26:28;;;;;;;3.10;2.90;;;;;;;40.81;25.04;97943.03;5083336;28;20028;-78
2022/06/30 05:26:30;;;;;;;4.30;3.60;;;;;;;41.11;25.18;97942.72;5095617;28;20070;-79
2022/06/30 05:28:56;;;;;;;5.28;3.30;;;;;;;40.97;25.47;97938.28;5095557;28;20033;-78
2022/06/30 05:31:22;;;;;;;3.75;3.40;;;;;;;40.94;26.08;97931.53;5095622;28;20555;-78
2022/06/30 05:33:48;;;;;;;2.60;2.40;;;;;;;41.27;25.49;97939.50;5095634;28;20381;-78
2022/06/30 05:36:15;;;;;;;2.78;2.67;;;;;;;41.43;24.95;97925.28;5095525;28;20476;-79
2022/06/30 05:38:41;;;;;;;2.50;2.22;;;;;;;41.43;25.09;97928.16;5089118;28;20537;-79
2022/06/30 05:41:07;;;;;;;1.95;1.85;;;;;;;41.49;25.07;97932.47;5075238;28;20024;-79
2022/06/30 05:43:33;;;;;;;1.92;1.83;;;;;;;41.74;25.21;97927.19;5075131;28;20032;-78
2022/06/30 05:45:59;;;;;;;2.42;2.20;;;;;;;41.98;25.28;97926.88;5075004;28;20032;-78
2022/06/30 05:48:25;;;;;;;2.38;2.17;;;;;;;42.11;24.20;97928.94;5075202;28;20170;-79
2022/06/30 05:50:51;;;;;;;1.90;1.80;;;;;;;42.32;24.49;97926.81;5075362;28;20066;-79
2022/06/30 05:53:17;;;;;;;1.70;1.60;;;;;;;42.45;24.35;97924.63;5074864;28;20029;-78
2022/06/30 05:55:43;;;;;;;1.63;1.52;;;;;;;42.33;24.75;97934.13;5091466;28;20024;-80
2022/06/30 05:58:15;;;;;;;2.03;1.92;;;;;;;42.26;23.93;97929.06;5075223;28;20049;-79
2022/06/30 06:00:41;;;;;;;1.83;1.73;;;;;;;41.70;24.95;97926.78;5074819;28;20029;-78
2022/06/30 06:03:07;;;;;;;1.85;1.75;;;;;;;41.83;24.24;97927.50;5074940;28;20094;-79
2022/06/30 06:05:34;;;;;;;1.88;1.77;;;;;;;42.02;23.73;97921.53;5090540;28;20031;-77
2022/06/30 06:08:07;;;;;;;2.22;2.03;;;;;;;41.95;23.17;97923.00;5074588;28;20052;-79
2022/06/30 06:10:34;;;;;;;1.60;1.50;;;;;;;42.17;24.04;97927.47;5074625;28;20024;-79
2022/06/30 06:13:01;;;;;;;1.58;1.48;;;;;;;42.47;23.72;97933.50;5083159;28;20081;-79
2022/06/30 06:15:27;;;;;;;2.63;1.77;;;;;;;42.61;22.91;97932.09;5093178;28;20032;-79
2022/06/30 06:17:53;;;;;;;1.60;1.50;;;;;;;42.60;22.65;97933.44;5083168;28;20020;-79
2022/06/30 06:20:20;;;;;;;2.05;1.85;;;;;;;42.74;22.40;97931.19;5094530;28;20036;-79
2022/06/30 06:22:46;;;;;;;3.08;1.88;;;;;;;42.59;22.32;97937.66;5094347;28;20032;-79
2022/06/30 06:25:14;;;;;;;4.05;2.38;;;;;;;42.47;22.15;97933.50;5095061;28;20070;-79
2022/06/30 06:27:41;;;;;;;2.88;2.65;;;;;;;42.22;23.44;97940.22;5085998;28;20576;-79
2022/06/30 06:30:10;;;;;;;2.97;2.38;;;;;;;42.36;22.49;97945.31;5083656;28;20118;-79
2022/06/30 06:32:36;;;;;;;3.53;2.17;;;;;;;42.55;22.54;97943.00;5094141;28;20112;-79
2022/06/30 06:35:05;;;;;;;3.50;2.85;;;;;;;42.70;21.88;97935.78;5094719;28;20039;-79
2022/06/30 06:37:31;;;;;;;2.58;2.38;;;;;;;42.63;22.46;97935.19;5094204;28;20495;-79
2022/06/30 06:39:57;;;;;;;3.40;3.10;;;;;;;42.40;23.23;97940.00;5094319;28;20513;-79
2022/06/30 06:42:23;;;;;;;2.35;2.22;;;;;;;42.21;23.25;97941.53;5094556;28;20115;-79
2022/06/30 06:44:49;;;;;;;2.95;2.65;;;;;;;42.12;23.16;97939.94;5094281;28;20039;-79
2022/06/30 06:47:16;;;;;;;3.25;3.00;;;;;;;42.27;23.89;97945.81;5082979;28;20025;-79
2022/06/30 06:49:44;;;;;;;3.15;2.50;;;;;;;42.44;24.02;97951.16;5074076;28;20029;-79
2022/06/30 06:52:10;;;;;;;2.88;2.67;;;;;;;42.49;23.45;97939.50;5073244;28;20094;-79
2022/06/30 06:54:36;;;;;;;2.97;2.78;;;;;;;42.49;23.45;97942.41;5093703;28;20028;-79
2022/06/30 06:57:02;;;;;;;3.00;2.80;;;;;;;42.71;23.04;97934.47;5075341;28;20060;-79
2022/06/30 06:59:29;;;;;;;6.95;3.30;;;;;;;42.82;22.39;97940.72;5073980;28;20090;-79
2022/06/30 07:01:55;;;;;;;2.85;2.65;;;;;;;42.64;22.44;97938.84;5073826;28;20079;-79
2022/06/30 07:04:21;;;;;;;3.50;3.30;;;;;;;42.70;22.71;97936.56;5062234;28;20025;-79
2022/06/30 07:06:48;;;;;;;5.72;3.10;;;;;;;42.56;23.48;97944.56;5053515;28;20037;-79
2022/06/30 07:09:14;;;;;;;4.63;3.22;;;;;;;42.83;22.94;97939.34;5069185;28;20028;-79
2022/06/30 07:11:40;;;;;;;3.28;2.72;;;;;;;42.33;22.28;97939.91;5053449;28;20025;-79
2022/06/30 07:14:08;;;;;;;3.88;3.55;;;;;;;42.26;22.99;97952.16;5053508;28;20033;-79
2022/06/30 07:16:34;;;;;;;4.07;3.53;;;;;;;42.33;23.10;97942.81;5053483;28;20033;-79
2022/06/30 07:19:00;;;;;;;3.72;3.40;;;;;;;42.65;23.15;97949.06;5053323;28;20048;-79
2022/06/30 07:21:26;;;;;;;4.70;3.45;;;;;;;43.01;22.32;97952.03;5064904;28;20496;-79
2022/06/30 07:23:52;;;;;;;3.15;2.95;;;;;;;42.89;22.15;97942.13;5073158;28;20044;-79
2022/06/30 07:26:18;;;;;;;3.28;3.08;;;;;;;43.15;22.87;97948.44;5073509;28;20040;-79
2022/06/30 07:28:44;;;;;;;3.25;2.95;;;;;;;42.22;24.02;97949.63;5073169;28;20392;-79
2022/06/30 07:31:12;;;;;;;3.78;3.47;;;;;;;41.52;25.21;97948.63;5073633;28;20074;-79
2022/06/30 07:33:38;;;;;;;2.85;2.60;;;;;;;41.54;24.96;97943.09;5073089;28;20086;-79
2022/06/30 07:36:05;;;;;;;4.00;3.30;;;;;;;41.73;24.50;97937.19;5073000;28;20055;-79
2022/06/30 07:38:31;;;;;;;3.45;3.25;;;;;;;41.87;23.34;97933.69;5071462;28;20108;-81
2022/06/30 07:40:57;;;;;;;4.18;2.90;;;;;;;41.91;22.36;97933.34;5073200;28;20040;-79
2022/06/30 07:43:23;;;;;;;3.00;2.80;;;;;;;42.36;22.95;97939.53;5073104;28;20032;-79
2022/06/30 07:45:51;;;;;;;3.22;2.92;;;;;;;42.70;21.54;97938.69;5073060;28;20543;-79
2022/06/30 07:48:17;;;;;;;3.55;2.90;;;;;;;42.47;22.41;97939.28;5073401;28;20372;-79
2022/06/30 07:50:43;;;;;;;3.17;2.97;;;;;;;42.63;23.26;97935.19;5073080;28;20384;-79
2022/06/30 07:53:09;;;;;;;3.00;2.80;;;;;;;42.93;22.28;97946.19;5072709;28;20093;-79
2022/06/30 07:55:36;;;;;;;3.08;2.88;;;;;;;43.36;22.05;97936.81;5059271;28;20061;-79
2022/06/30 07:58:02;;;;;;;3.00;2.80;;;;;;;43.56;22.56;97944.59;5064774;28;20546;-80
2022/06/30 08:00:28;;;;;;;2.67;2.45;;;;;;;43.71;21.34;97941.78;5073087;28;20025;-79
2022/06/30 08:02:54;;;;;;;2.30;2.10;;;;;;;43.89;22.20;97937.00;5073222;28;20032;-79
2022/06/30 08:05:20;;;;;;;2.38;2.22;;;;;;;44.04;22.55;97931.25;5075428;28;20547;-79
2022/06/30 08:07:46;;;;;;;3.72;2.88;;;;;;;43.17;23.05;97939.97;5076978;28;20032;-79
2022/06/30 08:10:12;;;;;;;3.55;2.90;;;;;;;43.02;22.50;97947.78;5077088;28;20112;-80
2022/06/30 08:12:38;;;;;;;2.65;2.55;;;;;;;42.61;23.87;97937.88;5090151;28;20028;-79
2022/06/30 08:15:05;;;;;;;3.33;3.05;;;;;;;43.13;23.44;97936.66;5097208;28;20107;-80
2022/06/30 08:17:32;;;;;;;3.53;3.22;;;;;;;42.69;23.69;97937.16;5097148;28;20065;-79
2022/06/30 08:19:59;;;;;;;3.03;2.83;;;;;;;41.78;25.44;97934.16;5096841;28;20028;-79
2022/06/30 08:22:26;;;;;;;3.58;3.22;;;;;;;42.43;24.35;97932.31;5097041;28;20051;-79
2022/06/30 08:24:52;;;;;;;3.40;3.00;;;;;;;42.52;24.37;97934.72;5086330;28;20070;-79
2022/06/30 08:27:18;;;;;;;3.55;3.25;;;;;;;41.99;25.30;97937.06;5088957;28;20045;-79
2022/06/30 08:29:44;;;;;;;4.10;3.33;;;;;;;41.57;26.61;97926.81;5091135;28;20052;-79
2022/06/30 08:32:10;;;;;;;4.53;3.97;;;;;;;41.03;26.24;97938.97;5096880;28;20035;-79
2022/06/30 08:34:36;;;;;;;4.13;3.72;;;;;;;41.86;25.59;97932.16;5096338;28;20051;-79
2022/06/30 08:37:02;;;;;;;5.65;3.55;;;;;;;41.32;26.61;97926.28;5096693;28;20032;-79
2022/06/30 08:42:19;;;;;;;3.90;3.60;;;;;;;41.78;25.01;97930.50;5097066;28;20051;-80
2022/06/30 08:47:32;;;;;;;3.40;3.20;;;;;;;42.73;25.11;97941.22;5096014;28;20461;-79
2022/06/30 08:50:01;;;;;;;3.70;3.33;;;;;;;43.35;23.36;97938.16;5093749;28;20105;-80
2022/06/30 08:52:30;;;;;;;3.28;3.03;;;;;;;43.52;23.58;97938.41;5076151;28;20086;-80
2022/06/30 08:54:58;;;;;;;3.33;3.13;;;;;;;42.97;24.80;97937.94;5076042;28;20097;-79
2022/06/30 08:57:26;;;;;;;3.38;3.10;;;;;;;41.81;24.65;97935.16;5075378;28;20400;-80
2022/06/30 08:59:53;;;;;;;3.38;3.17;;;;;;;41.38;24.07;97937.72;5074890;28;20067;-79
2022/06/30 09:02:19;;;;;;;3.15;2.85;;;;;;;41.47;24.44;97934.38;5077042;28;20029;-80
2022/06/30 09:04:45;;;;;;;3.35;3.05;;;;;;;42.54;22.54;97929.16;5095426;28;20032;-80
2022/06/30 09:07:12;;;;;;;3.40;3.10;;;;;;;42.80;22.71;97936.84;5095172;28;20032;-79
2022/06/30 09:09:38;;;;;;;4.60;3.42;;;;;;;41.33;24.11;97930.75;5076993;28;20029;-79
2022/06/30 09:12:14;;;;;;;4.07;3.40;;;;;;;41.12;24.91;97938.50;5094954;28;20024;-79
2022/06/30 09:14:43;;;;;;;3.65;3.35;;;;;;;40.99;25.40;97935.63;5094740;28;20027;-80
2022/06/30 09:17:13;;;;;;;3.85;3.55;;;;;;;40.77;24.61;97933.16;5089636;28;20039;-79
2022/06/30 09:19:58;;;;;;;;;;;;;;;42.28;22.82;97932.16;5076327;28;20476;-80
2022/06/30 09:22:26;;;;;;;3.72;3.45;;;;;;;42.63;23.65;97926.53;5074685;28;20044;-80
2022/06/30 09:25:10;;;;;;;3.00;2.80;;;;;;;43.03;23.36;97920.44;5074369;28;20049;-80
2022/06/30 09:27:39;;;;;;;5.38;3.92;;;;;;;41.59;25.19;97918.38;5081804;28;20036;-79
2022/06/30 09:30:13;;;;;;;6.68;4.65;;;;;;;40.27;26.02;97923.34;5094584;28;20044;-79
2022/06/30 09:32:47;;;;;;;4.90;4.35;;;;;;;40.51;25.32;97919.53;5087914;28;20035;-79
2022/06/30 09:35:14;;;;;;;4.20;3.90;;;;;;;41.55;24.38;97917.91;5083633;28;20039;-80
2022/06/30 09:37:41;;;;;;;5.50;5.10;;;;;;;40.98;25.07;97916.78;5088043;28;20103;-79
2022/06/30 09:40:09;;;;;;;5.47;4.93;;;;;;;40.05;25.50;97920.06;5074457;28;20032;-80
2022/06/30 09:42:41;;;;;;;5.43;4.47;;;;;;;41.13;24.47;97912.00;5074906;28;20361;-79
2022/06/30 09:45:10;;;;;;;7.47;4.80;;;;;;;41.50;23.79;97899.41;5073901;28;20029;-79
2022/06/30 09:47:37;;;;;;;3.90;3.70;;;;;;;42.51;22.65;97912.94;5073965;28;20037;-80
2022/06/30 09:50:07;;;;;;;5.10;4.60;;;;;;;41.95;23.64;97902.81;5073888;28;20135;-79
2022/06/30 09:52:34;;;;;;;4.93;4.53;;;;;;;41.44;23.69;97895.88;5074302;28;20024;-80
2022/06/30 09:55:03;;;;;;;4.50;4.15;;;;;;;41.75;24.11;97903.56;5090607;28;20024;-79
2022/06/30 09:57:31;;;;;;;6.00;3.80;;;;;;;41.20;24.63;97894.03;5053660;28;1133841;-80
2022/06/30 10:00:17;;;;;;;5.30;3.80;;;;;;;41.08;22.90;97895.59;5076804;28;20085;-79
2022/06/30 10:02:49;;;;;;;4.55;4.10;;;;;;;41.74;23.78;97893.38;5095154;28;20039;-79
2022/06/30 10:05:17;;;;;;;5.30;3.55;;;;;;;41.47;23.61;97885.34;5095232;28;20036;-79
2022/06/30 10:07:45;;;;;;;4.32;3.92;;;;;;;41.81;21.43;97886.91;5095246;28;20079;-80
2022/06/30 10:10:14;;;;;;;3.20;3.00;;;;;;;42.67;21.08;97883.59;5093201;28;20036;-79
2022/06/30 10:12:44;;;;;;;4.13;3.83;;;;;;;41.46;21.29;97884.56;5074794;28;20029;-79
2022/06/30 10:15:14;;;;;;;3.35;3.00;;;;;;;41.92;20.10;97882.94;5074804;28;20107;-79
2022/06/30 10:17:52;;;;;;;3.95;3.38;;;;;;;41.50;21.52;97882.09;5095538;28;20080;-79
2022/06/30 10:20:21;;;;;;;6.35;4.00;;;;;;;41.29;22.33;97879.19;5095027;28;20039;-79
2022/06/30 10:22:48;;;;;;;4.80;4.37;;;;;;;40.31;22.82;97874.84;5094605;28;20020;-79
2022/06/30 10:25:15;;;;;;;4.20;3.50;;;;;;;40.73;21.02;97887.41;5093711;28;20031;-79
2022/06/30 10:27:44;;;;;;;5.47;4.75;;;;;;;41.01;21.73;97890.53;5057310;28;20078;-79
2022/06/30 10:30:14;;;;;;;4.78;3.88;;;;;;;41.49;21.28;97886.34;5074052;28;20391;-79
2022/06/30 10:32:50;;;;;;;4.18;3.88;;;;;;;41.19;21.83;97883.84;5076357;28;20392;-79
2022/06/30 10:35:38;;;;;;;3.95;3.60;;;;;;;42.30;19.73;97878.31;5094552;28;20476;-79
2022/06/30 10:38:23;;;;;;;3.78;3.25;;;;;;;42.14;20.90;97876.66;5076319;28;20086;-79
2022/06/30 10:40:49;;;;;;;6.07;3.65;;;;;;;42.32;21.55;97874.84;5074055;28;20029;-80
2022/06/30 10:43:16;;;;;;;3.60;3.28;;;;;;;41.76;21.32;97873.38;5073920;28;20032;-79
2022/06/30 10:46:00;;;;;;;6.22;3.60;;;;;;;42.44;21.40;97873.22;5088199;28;20027;-79
2022/06/30 10:48:28;;;;;;;3.40;3.17;;;;;;;43.18;20.06;97874.25;5094378;28;20387;-79
2022/06/30 10:50:56;;;;;;;4.13;3.58;;;;;;;44.21;18.87;97858.31;5094102;28;20440;-79
2022/06/30 10:53:42;;;;;;;4.47;2.90;;;;;;;42.36;19.94;97867.38;5094008;28;20046;-79
2022/06/30 10:56:09;;;;;;;3.97;3.53;;;;;;;41.65;20.93;97873.63;5069085;28;20093;-79
2022/06/30 10:58:35;;;;;;;3.72;3.42;;;;;;;41.19;21.46;97863.69;5093406;28;20484;-80
2022/06/30 11:01:10;;;;;;;4.80;4.03;;;;;;;42.33;19.53;97862.75;5092802;28;20059;-79
2022/06/30 11:03:37;;;;;;;3.85;3.55;;;;;;;42.02;20.66;97858.03;5073696;28;20033;-79
2022/06/30 11:06:09;;;;;;;3.95;3.65;;;;;;;42.97;19.93;97854.13;5073677;28;20047;-79
2022/06/30 11:08:57;;;;;;;4.45;3.58;;;;;;;42.91;19.46;97855.63;5073777;28;20515;-80
2022/06/30 11:11:24;;;;;;;5.10;3.80;;;;;;;42.23;19.74;97850.16;5073653;28;20361;-80
2022/06/30 11:13:53;;;;;;;3.65;3.38;;;;;;;41.94;20.29;97860.84;5055235;28;20032;-79
2022/06/30 11:16:20;;;;;;;3.40;3.10;;;;;;;42.03;19.78;97850.16;5073652;28;20032;-79
2022/06/30 11:18:46;;;;;;;3.38;3.17;;;;;;;42.22;18.03;97854.38;5079554;28;20500;-79
2022/06/30 11:21:13;;;;;;;2.50;2.33;;;;;;;42.14;19.37;97847.00;5093647;28;20099;-80
2022/06/30 11:23:41;;;;;;;4.78;2.20;;;;;;;41.40;18.77;97848.56;5093447;28;20032;-80
2022/06/30 11:28:54;;;;;;;2.70;2.50;;;;;;;40.97;19.24;97838.25;5080876;28;20412;-80
2022/06/30 11:31:26;;;;;;;3.10;2.60;;;;;;;41.29;19.30;97840.94;5093368;28;20488;-80
2022/06/30 11:34:01;;;;;;;4.22;3.00;;;;;;;40.75;19.78;97838.72;5093119;28;20032;-80
2022/06/30 11:36:28;;;;;;;3.35;3.03;;;;;;;41.25;19.61;97838.38;5091613;28;20024;-80
2022/06/30 11:39:00;;;;;;;2.88;2.67;;;;;;;41.92;19.29;97828.13;5109111;28;20082;-79
2022/06/30 11:44:14;;;;;;;2.67;2.47;;;;;;;42.98;17.87;97828.91;5093657;28;20051;-80
2022/06/30 11:46:51;;;;;;;4.03;2.63;;;;;;;43.80;17.65;97825.50;5093260;28;20039;-80
2022/06/30 11:49:18;;;;;;;1.98;1.88;;;;;;;43.69;17.10;97825.09;5093404;28;20064;-80
2022/06/30 11:51:45;;;;;;;4.10;2.10;;;;;;;43.67;17.68;97825.66;5075749;28;20036;-80
2022/06/30 11:54:13;;;;;;;2.97;2.30;;;;;;;42.07;19.92;97819.63;5091430;28;20043;-80
2022/06/30 11:56:55;;;;;;;3.30;3.10;;;;;;;41.51;18.68;97811.59;5092804;28;20036;-80